sensor_id;sensor_type;location;lat;lon;timestamp;P1;durP1;ratioP1;P2;durP2;ratioP2
46765;SDS011;32527;51.986;5.842;2023-04-03T00:00:28;4.35;;;2.40;;
46765;SDS011;32527;51.986;5.842;2023-04-03T00:02:55;3.33;;;2.13;;
46765;SDS011;32527;51.986;5.842;2023-04-03T00:05:21;6.80;;;2.63;;
46765;SDS011;32527;51.986;5.842;2023-04-03T00:07:47;3.15;;;2.15;;
46765;SDS011;32527;51.986;5.842;2023-04-03T00:10:14;5.47;;;2.80;;
46765;SDS011;32527;51.986;5.842;2023-04-03T00:12:40;5.45;;;2.72;;
46765;SDS011;32527;51.986;5.842;2023-04-03T00:15:07;4.25;;;2.47;;
46765;SDS011;32527;51.986;5.842;2023-04-03T00:17:33;4.80;;;2.60;;
46765;SDS011;32527;51.986;5.842;2023-04-03T00:19:59;5.90;;;2.80;;
46765;SDS011;32527;51.986;5.842;2023-04-03T00:22:25;5.28;;;2.53;;
46765;SDS011;32527;51.986;5.842;2023-04-03T00:24:53;6.35;;;2.45;;
46765;SDS011;32527;51.986;5.842;2023-04-03T00:27:19;4.47;;;2.50;;
46765;SDS011;32527;51.986;5.842;2023-04-03T00:29:45;7.15;;;3.40;;
46765;SDS011;32527;51.986;5.842;2023-04-03T00:32:11;7.57;;;2.88;;
46765;SDS011;32527;51.986;5.842;2023-04-03T00:34:37;4.30;;;2.70;;
46765;SDS011;32527;51.986;5.842;2023-04-03T00:37:03;5.82;;;2.88;;
46765;SDS011;32527;51.986;5.842;2023-04-03T00:39:29;4.57;;;2.38;;
46765;SDS011;32527;51.986;5.842;2023-04-03T00:41:56;8.18;;;2.75;;
46765;SDS011;32527;51.986;5.842;2023-04-03T00:45:21;7.10;;;2.72;;
46765;SDS011;32527;51.986;5.842;2023-04-03T00:47:10;5.05;;;2.88;;
46765;SDS011;32527;51.986;5.842;2023-04-03T00:49:38;5.32;;;2.67;;
46765;SDS011;32527;51.986;5.842;2023-04-03T00:52:05;5.82;;;2.50;;
46765;SDS011;32527;51.986;5.842;2023-04-03T00:54:34;7.03;;;2.70;;
46765;SDS011;32527;51.986;5.842;2023-04-03T00:57:02;4.88;;;2.50;;
46765;SDS011;32527;51.986;5.842;2023-04-03T00:59:31;7.90;;;2.17;;
46765;SDS011;32527;51.986;5.842;2023-04-03T01:02:00;6.88;;;2.70;;
46765;SDS011;32527;51.986;5.842;2023-04-03T01:04:39;6.55;;;2.88;;
46765;SDS011;32527;51.986;5.842;2023-04-03T01:07:09;7.10;;;2.70;;
46765;SDS011;32527;51.986;5.842;2023-04-03T01:09:40;5.55;;;2.70;;
46765;SDS011;32527;51.986;5.842;2023-04-03T01:12:20;8.55;;;2.55;;
46765;SDS011;32527;51.986;5.842;2023-04-03T01:14:52;6.68;;;3.00;;
46765;SDS011;32527;51.986;5.842;2023-04-03T01:17:34;6.75;;;2.90;;
46765;SDS011;32527;51.986;5.842;2023-04-03T01:22:49;8.55;;;3.85;;
46765;SDS011;32527;51.986;5.842;2023-04-03T01:25:42;3.33;;;2.20;;
46765;SDS011;32527;51.986;5.842;2023-04-03T01:28:17;7.75;;;3.17;;
46765;SDS011;32527;51.986;5.842;2023-04-03T01:33:52;5.68;;;2.45;;
46765;SDS011;32527;51.986;5.842;2023-04-03T01:36:29;5.72;;;3.00;;
46765;SDS011;32527;51.986;5.842;2023-04-03T01:38:57;2.92;;;1.98;;
46765;SDS011;32527;51.986;5.842;2023-04-03T01:41:24;7.68;;;2.50;;
46765;SDS011;32527;51.986;5.842;2023-04-03T01:43:54;14.52;;;3.80;;
46765;SDS011;32527;51.986;5.842;2023-04-03T01:46:20;4.60;;;3.10;;
46765;SDS011;32527;51.986;5.842;2023-04-03T01:48:46;5.82;;;2.40;;
46765;SDS011;32527;51.986;5.842;2023-04-03T01:51:12;5.00;;;2.72;;
46765;SDS011;32527;51.986;5.842;2023-04-03T01:53:38;5.65;;;2.50;;
46765;SDS011;32527;51.986;5.842;2023-04-03T01:56:04;4.68;;;2.30;;
46765;SDS011;32527;51.986;5.842;2023-04-03T01:58:31;7.93;;;2.70;;
46765;SDS011;32527;51.986;5.842;2023-04-03T02:00:57;7.85;;;3.17;;
46765;SDS011;32527;51.986;5.842;2023-04-03T02:03:23;7.45;;;2.53;;
46765;SDS011;32527;51.986;5.842;2023-04-03T02:05:49;7.53;;;3.13;;
46765;SDS011;32527;51.986;5.842;2023-04-03T02:08:15;6.60;;;3.03;;
46765;SDS011;32527;51.986;5.842;2023-04-03T02:10:43;6.88;;;2.42;;
46765;SDS011;32527;51.986;5.842;2023-04-03T02:13:10;6.53;;;2.72;;
46765;SDS011;32527;51.986;5.842;2023-04-03T02:15:39;4.63;;;2.30;;
46765;SDS011;32527;51.986;5.842;2023-04-03T02:18:05;5.80;;;2.33;;
46765;SDS011;32527;51.986;5.842;2023-04-03T02:20:32;8.15;;;2.60;;
46765;SDS011;32527;51.986;5.842;2023-04-03T02:22:58;5.07;;;2.65;;
46765;SDS011;32527;51.986;5.842;2023-04-03T02:25:24;7.28;;;2.13;;
46765;SDS011;32527;51.986;5.842;2023-04-03T02:27:51;5.28;;;2.53;;
46765;SDS011;32527;51.986;5.842;2023-04-03T02:30:17;5.15;;;2.55;;
46765;SDS011;32527;51.986;5.842;2023-04-03T02:32:43;4.60;;;2.50;;
46765;SDS011;32527;51.986;5.842;2023-04-03T02:35:10;6.75;;;2.60;;
46765;SDS011;32527;51.986;5.842;2023-04-03T02:37:36;4.82;;;2.40;;
46765;SDS011;32527;51.986;5.842;2023-04-03T02:40:03;6.50;;;2.63;;
46765;SDS011;32527;51.986;5.842;2023-04-03T02:42:29;5.80;;;2.05;;
46765;SDS011;32527;51.986;5.842;2023-04-03T02:44:55;5.82;;;2.50;;
46765;SDS011;32527;51.986;5.842;2023-04-03T02:47:21;6.65;;;2.42;;
46765;SDS011;32527;51.986;5.842;2023-04-03T02:49:47;4.63;;;2.17;;
46765;SDS011;32527;51.986;5.842;2023-04-03T02:52:14;5.05;;;2.55;;
46765;SDS011;32527;51.986;5.842;2023-04-03T02:54:40;5.90;;;3.22;;
46765;SDS011;32527;51.986;5.842;2023-04-03T02:57:09;7.38;;;2.60;;
46765;SDS011;32527;51.986;5.842;2023-04-03T02:59:35;4.72;;;2.28;;
46765;SDS011;32527;51.986;5.842;2023-04-03T03:02:02;7.85;;;3.63;;
46765;SDS011;32527;51.986;5.842;2023-04-03T03:04:28;5.57;;;2.53;;
46765;SDS011;32527;51.986;5.842;2023-04-03T03:06:55;5.03;;;2.50;;
46765;SDS011;32527;51.986;5.842;2023-04-03T03:09:21;8.07;;;3.00;;
46765;SDS011;32527;51.986;5.842;2023-04-03T03:11:47;9.00;;;2.70;;
46765;SDS011;32527;51.986;5.842;2023-04-03T03:14:13;4.95;;;2.22;;
46765;SDS011;32527;51.986;5.842;2023-04-03T03:16:40;5.88;;;3.20;;
46765;SDS011;32527;51.986;5.842;2023-04-03T03:19:06;8.43;;;2.75;;
46765;SDS011;32527;51.986;5.842;2023-04-03T03:21:32;7.10;;;2.80;;
46765;SDS011;32527;51.986;5.842;2023-04-03T03:23:58;9.20;;;2.72;;
46765;SDS011;32527;51.986;5.842;2023-04-03T03:26:25;7.13;;;2.20;;
46765;SDS011;32527;51.986;5.842;2023-04-03T03:28:51;10.07;;;2.40;;
46765;SDS011;32527;51.986;5.842;2023-04-03T03:31:17;8.75;;;2.75;;
46765;SDS011;32527;51.986;5.842;2023-04-03T03:33:43;9.15;;;2.92;;
46765;SDS011;32527;51.986;5.842;2023-04-03T03:36:09;6.50;;;2.97;;
46765;SDS011;32527;51.986;5.842;2023-04-03T03:38:36;10.35;;;2.50;;
46765;SDS011;32527;51.986;5.842;2023-04-03T03:41:02;5.57;;;2.60;;
46765;SDS011;32527;51.986;5.842;2023-04-03T03:43:30;4.88;;;2.67;;
46765;SDS011;32527;51.986;5.842;2023-04-03T03:45:56;7.30;;;3.30;;
46765;SDS011;32527;51.986;5.842;2023-04-03T03:48:23;9.68;;;2.70;;
46765;SDS011;32527;51.986;5.842;2023-04-03T03:50:50;6.00;;;2.63;;
46765;SDS011;32527;51.986;5.842;2023-04-03T03:53:18;5.45;;;2.88;;
46765;SDS011;32527;51.986;5.842;2023-04-03T03:55:45;6.50;;;2.80;;
46765;SDS011;32527;51.986;5.842;2023-04-03T03:58:11;7.60;;;2.88;;
46765;SDS011;32527;51.986;5.842;2023-04-03T04:00:37;4.53;;;2.40;;
46765;SDS011;32527;51.986;5.842;2023-04-03T04:03:03;8.38;;;3.00;;
46765;SDS011;32527;51.986;5.842;2023-04-03T04:05:30;3.13;;;2.13;;
46765;SDS011;32527;51.986;5.842;2023-04-03T04:07:58;7.15;;;2.80;;
46765;SDS011;32527;51.986;5.842;2023-04-03T04:10:24;5.40;;;2.53;;
46765;SDS011;32527;51.986;5.842;2023-04-03T04:12:50;5.45;;;2.70;;
46765;SDS011;32527;51.986;5.842;2023-04-03T04:15:19;6.43;;;2.53;;
46765;SDS011;32527;51.986;5.842;2023-04-03T04:17:47;5.47;;;3.20;;
46765;SDS011;32527;51.986;5.842;2023-04-03T04:20:13;6.05;;;2.42;;
46765;SDS011;32527;51.986;5.842;2023-04-03T04:22:39;7.43;;;2.83;;
46765;SDS011;32527;51.986;5.842;2023-04-03T04:25:06;9.55;;;3.72;;
46765;SDS011;32527;51.986;5.842;2023-04-03T04:27:32;7.68;;;3.05;;
46765;SDS011;32527;51.986;5.842;2023-04-03T04:29:58;7.63;;;3.22;;
46765;SDS011;32527;51.986;5.842;2023-04-03T04:32:26;5.13;;;3.05;;
46765;SDS011;32527;51.986;5.842;2023-04-03T04:34:52;10.18;;;4.07;;
46765;SDS011;32527;51.986;5.842;2023-04-03T04:37:18;4.85;;;2.72;;
46765;SDS011;32527;51.986;5.842;2023-04-03T04:39:45;7.22;;;3.08;;
46765;SDS011;32527;51.986;5.842;2023-04-03T04:42:11;6.00;;;2.72;;
46765;SDS011;32527;51.986;5.842;2023-04-03T04:44:39;5.40;;;2.72;;
46765;SDS011;32527;51.986;5.842;2023-04-03T04:47:05;10.45;;;3.53;;
46765;SDS011;32527;51.986;5.842;2023-04-03T04:49:32;8.90;;;3.17;;
46765;SDS011;32527;51.986;5.842;2023-04-03T04:51:58;5.85;;;2.88;;
46765;SDS011;32527;51.986;5.842;2023-04-03T04:54:28;8.90;;;3.05;;
46765;SDS011;32527;51.986;5.842;2023-04-03T04:56:55;6.32;;;3.00;;
46765;SDS011;32527;51.986;5.842;2023-04-03T04:59:21;9.65;;;3.05;;
46765;SDS011;32527;51.986;5.842;2023-04-03T05:01:47;11.32;;;3.40;;
46765;SDS011;32527;51.986;5.842;2023-04-03T05:04:15;7.95;;;3.47;;
46765;SDS011;32527;51.986;5.842;2023-04-03T05:06:42;8.48;;;3.30;;
46765;SDS011;32527;51.986;5.842;2023-04-03T05:09:13;4.35;;;2.92;;
46765;SDS011;32527;51.986;5.842;2023-04-03T05:11:41;6.47;;;3.13;;
46765;SDS011;32527;51.986;5.842;2023-04-03T05:14:08;8.07;;;3.17;;
46765;SDS011;32527;51.986;5.842;2023-04-03T05:16:35;8.00;;;3.30;;
46765;SDS011;32527;51.986;5.842;2023-04-03T05:19:01;8.05;;;3.25;;
46765;SDS011;32527;51.986;5.842;2023-04-03T05:21:28;8.25;;;3.40;;
46765;SDS011;32527;51.986;5.842;2023-04-03T05:23:58;5.70;;;2.75;;
46765;SDS011;32527;51.986;5.842;2023-04-03T05:26:29;13.40;;;3.28;;
46765;SDS011;32527;51.986;5.842;2023-04-03T05:28:55;6.93;;;2.72;;
46765;SDS011;32527;51.986;5.842;2023-04-03T05:31:21;10.38;;;2.80;;
46765;SDS011;32527;51.986;5.842;2023-04-03T05:33:48;8.88;;;3.55;;
46765;SDS011;32527;51.986;5.842;2023-04-03T05:36:16;9.38;;;3.00;;
46765;SDS011;32527;51.986;5.842;2023-04-03T05:38:46;6.05;;;2.78;;
46765;SDS011;32527;51.986;5.842;2023-04-03T05:41:12;4.03;;;2.65;;
46765;SDS011;32527;51.986;5.842;2023-04-03T05:43:39;6.07;;;2.58;;
46765;SDS011;32527;51.986;5.842;2023-04-03T05:46:14;10.07;;;2.88;;
46765;SDS011;32527;51.986;5.842;2023-04-03T05:48:44;6.97;;;2.58;;
46765;SDS011;32527;51.986;5.842;2023-04-03T05:51:15;6.30;;;2.65;;
46765;SDS011;32527;51.986;5.842;2023-04-03T05:53:45;6.13;;;2.30;;
46765;SDS011;32527;51.986;5.842;2023-04-03T05:56:11;8.23;;;2.60;;
46765;SDS011;32527;51.986;5.842;2023-04-03T05:58:39;8.00;;;2.90;;
46765;SDS011;32527;51.986;5.842;2023-04-03T06:01:05;4.10;;;2.42;;
46765;SDS011;32527;51.986;5.842;2023-04-03T06:03:31;11.18;;;3.05;;
46765;SDS011;32527;51.986;5.842;2023-04-03T06:05:57;10.80;;;3.00;;
46765;SDS011;32527;51.986;5.842;2023-04-03T06:08:23;7.75;;;2.45;;
46765;SDS011;32527;51.986;5.842;2023-04-03T06:10:50;6.82;;;2.92;;
46765;SDS011;32527;51.986;5.842;2023-04-03T06:13:16;7.43;;;2.45;;
46765;SDS011;32527;51.986;5.842;2023-04-03T06:15:43;5.20;;;2.70;;
46765;SDS011;32527;51.986;5.842;2023-04-03T06:18:09;8.80;;;2.60;;
46765;SDS011;32527;51.986;5.842;2023-04-03T06:20:35;7.80;;;2.90;;
46765;SDS011;32527;51.986;5.842;2023-04-03T06:23:01;7.05;;;2.78;;
46765;SDS011;32527;51.986;5.842;2023-04-03T06:25:27;9.15;;;2.97;;
46765;SDS011;32527;51.986;5.842;2023-04-03T06:27:53;7.57;;;2.55;;
46765;SDS011;32527;51.986;5.842;2023-04-03T06:30:20;4.53;;;2.42;;
46765;SDS011;32527;51.986;5.842;2023-04-03T06:32:46;7.20;;;2.75;;
46765;SDS011;32527;51.986;5.842;2023-04-03T06:35:12;9.02;;;2.78;;
46765;SDS011;32527;51.986;5.842;2023-04-03T06:37:38;7.97;;;2.35;;
46765;SDS011;32527;51.986;5.842;2023-04-03T06:40:05;4.63;;;2.35;;
46765;SDS011;32527;51.986;5.842;2023-04-03T06:42:31;9.50;;;2.75;;
46765;SDS011;32527;51.986;5.842;2023-04-03T06:45:05;6.78;;;2.70;;
46765;SDS011;32527;51.986;5.842;2023-04-03T06:47:31;7.72;;;2.08;;
46765;SDS011;32527;51.986;5.842;2023-04-03T06:49:56;5.63;;;2.15;;
46765;SDS011;32527;51.986;5.842;2023-04-03T06:52:22;6.00;;;2.35;;
46765;SDS011;32527;51.986;5.842;2023-04-03T06:54:48;5.80;;;2.75;;
46765;SDS011;32527;51.986;5.842;2023-04-03T06:57:16;6.85;;;2.65;;
46765;SDS011;32527;51.986;5.842;2023-04-03T06:59:43;5.88;;;2.35;;
46765;SDS011;32527;51.986;5.842;2023-04-03T07:02:11;6.65;;;2.10;;
46765;SDS011;32527;51.986;5.842;2023-04-03T07:04:37;5.10;;;2.63;;
46765;SDS011;32527;51.986;5.842;2023-04-03T07:07:03;6.50;;;2.47;;
46765;SDS011;32527;51.986;5.842;2023-04-03T07:09:28;5.32;;;2.42;;
46765;SDS011;32527;51.986;5.842;2023-04-03T07:11:54;9.60;;;2.80;;
46765;SDS011;32527;51.986;5.842;2023-04-03T07:14:20;9.20;;;3.05;;
46765;SDS011;32527;51.986;5.842;2023-04-03T07:16:46;6.22;;;2.47;;
46765;SDS011;32527;51.986;5.842;2023-04-03T07:19:12;7.40;;;4.00;;
46765;SDS011;32527;51.986;5.842;2023-04-03T07:21:38;6.38;;;2.50;;
46765;SDS011;32527;51.986;5.842;2023-04-03T07:24:05;5.30;;;2.65;;
46765;SDS011;32527;51.986;5.842;2023-04-03T07:26:31;4.53;;;2.20;;
46765;SDS011;32527;51.986;5.842;2023-04-03T07:28:56;4.45;;;2.13;;
46765;SDS011;32527;51.986;5.842;2023-04-03T07:31:22;7.75;;;2.38;;
46765;SDS011;32527;51.986;5.842;2023-04-03T07:33:48;5.72;;;2.50;;
46765;SDS011;32527;51.986;5.842;2023-04-03T07:36:15;7.53;;;2.80;;
46765;SDS011;32527;51.986;5.842;2023-04-03T07:38:43;9.50;;;2.45;;
46765;SDS011;32527;51.986;5.842;2023-04-03T07:41:11;6.78;;;1.95;;
46765;SDS011;32527;51.986;5.842;2023-04-03T07:43:43;5.17;;;1.80;;
46765;SDS011;32527;51.986;5.842;2023-04-03T07:46:08;5.15;;;2.10;;
46765;SDS011;32527;51.986;5.842;2023-04-03T07:48:35;6.30;;;2.20;;
46765;SDS011;32527;51.986;5.842;2023-04-03T07:51:02;7.55;;;2.30;;
46765;SDS011;32527;51.986;5.842;2023-04-03T07:53:29;3.60;;;1.80;;
46765;SDS011;32527;51.986;5.842;2023-04-03T07:55:56;5.45;;;2.30;;
46765;SDS011;32527;51.986;5.842;2023-04-03T07:58:22;4.78;;;2.13;;
46765;SDS011;32527;51.986;5.842;2023-04-03T08:00:48;8.52;;;2.15;;
46765;SDS011;32527;51.986;5.842;2023-04-03T08:03:14;7.05;;;2.20;;
46765;SDS011;32527;51.986;5.842;2023-04-03T08:05:44;5.45;;;3.25;;
46765;SDS011;32527;51.986;5.842;2023-04-03T08:08:12;4.70;;;2.20;;
46765;SDS011;32527;51.986;5.842;2023-04-03T08:10:39;6.03;;;2.72;;
46765;SDS011;32527;51.986;5.842;2023-04-03T08:13:05;3.78;;;1.70;;
46765;SDS011;32527;51.986;5.842;2023-04-03T08:15:31;4.32;;;2.05;;
46765;SDS011;32527;51.986;5.842;2023-04-03T08:17:58;5.03;;;1.83;;
46765;SDS011;32527;51.986;5.842;2023-04-03T08:20:24;6.82;;;2.03;;
46765;SDS011;32527;51.986;5.842;2023-04-03T08:22:50;5.38;;;2.05;;
46765;SDS011;32527;51.986;5.842;2023-04-03T08:25:16;4.65;;;1.92;;
46765;SDS011;32527;51.986;5.842;2023-04-03T08:27:42;3.28;;;1.73;;
46765;SDS011;32527;51.986;5.842;2023-04-03T08:30:09;4.35;;;1.77;;
46765;SDS011;32527;51.986;5.842;2023-04-03T08:32:35;4.85;;;1.67;;
46765;SDS011;32527;51.986;5.842;2023-04-03T08:35:02;3.10;;;1.58;;
46765;SDS011;32527;51.986;5.842;2023-04-03T08:37:28;2.92;;;1.40;;
46765;SDS011;32527;51.986;5.842;2023-04-03T08:39:55;2.53;;;1.17;;
46765;SDS011;32527;51.986;5.842;2023-04-03T08:42:35;3.42;;;1.40;;
46765;SDS011;32527;51.986;5.842;2023-04-03T08:45:51;5.50;;;1.90;;
46765;SDS011;32527;51.986;5.842;2023-04-03T08:48:15;2.97;;;1.48;;
46765;SDS011;32527;51.986;5.842;2023-04-03T08:50:50;3.20;;;1.33;;
46765;SDS011;32527;51.986;5.842;2023-04-03T08:53:27;4.38;;;1.30;;
46765;SDS011;32527;51.986;5.842;2023-04-03T08:55:57;2.92;;;1.60;;
46765;SDS011;32527;51.986;5.842;2023-04-03T08:58:24;3.70;;;1.52;;
46765;SDS011;32527;51.986;5.842;2023-04-03T09:01:15;2.08;;;1.17;;
46765;SDS011;32527;51.986;5.842;2023-04-03T09:03:48;2.55;;;1.40;;
46765;SDS011;32527;51.986;5.842;2023-04-03T09:06:15;4.47;;;1.17;;
46765;SDS011;32527;51.986;5.842;2023-04-03T09:14:49;2.70;;;1.08;;
46765;SDS011;32527;51.986;5.842;2023-04-03T09:17:38;3.72;;;1.27;;
46765;SDS011;32527;51.986;5.842;2023-04-03T09:22:45;2.90;;;1.55;;
46765;SDS011;32527;51.986;5.842;2023-04-03T09:27:41;3.20;;;1.27;;
46765;SDS011;32527;51.986;5.842;2023-04-03T09:30:12;4.53;;;1.00;;
46765;SDS011;32527;51.986;5.842;2023-04-03T09:32:40;1.35;;;1.00;;
46765;SDS011;32527;51.986;5.842;2023-04-03T09:37:45;1.67;;;0.95;;
46765;SDS011;32527;51.986;5.842;2023-04-03T09:42:51;1.10;;;0.77;;
46765;SDS011;32527;51.986;5.842;2023-04-03T09:45:26;0.77;;;0.70;;
46765;SDS011;32527;51.986;5.842;2023-04-03T09:50:37;1.38;;;1.08;;
46765;SDS011;32527;51.986;5.842;2023-04-03T09:53:49;2.17;;;1.10;;
46765;SDS011;32527;51.986;5.842;2023-04-03T10:04:10;2.05;;;0.65;;
46765;SDS011;32527;51.986;5.842;2023-04-03T10:06:44;2.33;;;1.27;;
46765;SDS011;32527;51.986;5.842;2023-04-03T10:14:23;3.67;;;1.67;;
46765;SDS011;32527;51.986;5.842;2023-04-03T10:19:44;3.45;;;1.35;;
46765;SDS011;32527;51.986;5.842;2023-04-03T10:27:39;1.83;;;0.98;;
46765;SDS011;32527;51.986;5.842;2023-04-03T10:31:00;2.97;;;1.38;;
46765;SDS011;32527;51.986;5.842;2023-04-03T10:33:19;4.85;;;1.63;;
46765;SDS011;32527;51.986;5.842;2023-04-03T10:38:54;5.15;;;1.88;;
46765;SDS011;32527;51.986;5.842;2023-04-03T10:41:47;3.42;;;1.63;;
46765;SDS011;32527;51.986;5.842;2023-04-03T10:44:18;3.65;;;1.45;;
46765;SDS011;32527;51.986;5.842;2023-04-03T10:49:33;3.88;;;1.20;;
46765;SDS011;32527;51.986;5.842;2023-04-03T10:52:20;2.20;;;1.42;;
46765;SDS011;32527;51.986;5.842;2023-04-03T10:57:21;4.43;;;1.70;;
46765;SDS011;32527;51.986;5.842;2023-04-03T10:59:51;3.50;;;1.58;;
46765;SDS011;32527;51.986;5.842;2023-04-03T11:02:33;4.18;;;1.60;;
46765;SDS011;32527;51.986;5.842;2023-04-03T11:07:49;2.17;;;1.45;;
46765;SDS011;32527;51.986;5.842;2023-04-03T11:10:22;3.42;;;1.98;;
46765;SDS011;32527;51.986;5.842;2023-04-03T11:12:56;3.25;;;1.67;;
46765;SDS011;32527;51.986;5.842;2023-04-03T11:15:27;2.30;;;1.40;;
46765;SDS011;32527;51.986;5.842;2023-04-03T11:18:00;3.28;;;1.90;;
46765;SDS011;32527;51.986;5.842;2023-04-03T11:20:36;6.05;;;1.90;;
46765;SDS011;32527;51.986;5.842;2023-04-03T11:23:04;2.35;;;1.55;;
46765;SDS011;32527;51.986;5.842;2023-04-03T11:25:37;4.25;;;1.75;;
46765;SDS011;32527;51.986;5.842;2023-04-03T11:28:09;2.92;;;1.50;;
46765;SDS011;32527;51.986;5.842;2023-04-03T11:33:37;1.63;;;1.30;;
46765;SDS011;32527;51.986;5.842;2023-04-03T11:36:09;2.55;;;1.38;;
46765;SDS011;32527;51.986;5.842;2023-04-03T11:38:41;2.75;;;1.33;;
46765;SDS011;32527;51.986;5.842;2023-04-03T11:41:09;3.70;;;1.75;;
46765;SDS011;32527;51.986;5.842;2023-04-03T11:43:41;3.10;;;1.40;;
46765;SDS011;32527;51.986;5.842;2023-04-03T12:00:45;3.38;;;1.38;;
46765;SDS011;32527;51.986;5.842;2023-04-03T12:06:51;2.60;;;1.20;;
46765;SDS011;32527;51.986;5.842;2023-04-03T12:09:53;2.67;;;1.75;;
46765;SDS011;32527;51.986;5.842;2023-04-03T12:17:50;2.63;;;1.42;;
46765;SDS011;32527;51.986;5.842;2023-04-03T12:23:28;3.45;;;1.73;;
46765;SDS011;32527;51.986;5.842;2023-04-03T12:25:59;4.68;;;1.52;;
46765;SDS011;32527;51.986;5.842;2023-04-03T12:28:29;6.97;;;1.33;;
46765;SDS011;32527;51.986;5.842;2023-04-03T12:30:55;5.38;;;1.60;;
46765;SDS011;32527;51.986;5.842;2023-04-03T12:36:35;4.25;;;1.67;;
46765;SDS011;32527;51.986;5.842;2023-04-03T12:48:47;2.25;;;1.23;;
46765;SDS011;32527;51.986;5.842;2023-04-03T12:51:32;2.08;;;1.27;;
46765;SDS011;32527;51.986;5.842;2023-04-03T12:57:10;6.13;;;2.10;;
46765;SDS011;32527;51.986;5.842;2023-04-03T12:59:48;2.63;;;1.63;;
46765;SDS011;32527;51.986;5.842;2023-04-03T13:02:20;6.30;;;1.77;;
46765;SDS011;32527;51.986;5.842;2023-04-03T13:04:57;3.00;;;1.60;;
46765;SDS011;32527;51.986;5.842;2023-04-03T13:07:33;6.20;;;1.88;;
46765;SDS011;32527;51.986;5.842;2023-04-03T13:12:30;3.97;;;1.80;;
46765;SDS011;32527;51.986;5.842;2023-04-03T13:15:00;2.92;;;1.40;;
46765;SDS011;32527;51.986;5.842;2023-04-03T13:17:38;2.63;;;1.50;;
46765;SDS011;32527;51.986;5.842;2023-04-03T13:20:10;6.70;;;2.45;;
46765;SDS011;32527;51.986;5.842;2023-04-03T13:22:48;5.13;;;1.77;;
46765;SDS011;32527;51.986;5.842;2023-04-03T13:25:18;5.65;;;3.33;;
46765;SDS011;32527;51.986;5.842;2023-04-03T13:27:45;3.97;;;1.75;;
46765;SDS011;32527;51.986;5.842;2023-04-03T13:30:19;4.60;;;2.35;;
46765;SDS011;32527;51.986;5.842;2023-04-03T13:32:50;3.67;;;1.60;;
46765;SDS011;32527;51.986;5.842;2023-04-03T13:37:57;5.68;;;1.65;;
46765;SDS011;32527;51.986;5.842;2023-04-03T13:40:25;5.03;;;2.10;;
46765;SDS011;32527;51.986;5.842;2023-04-03T13:42:59;5.38;;;1.55;;
46765;SDS011;32527;51.986;5.842;2023-04-03T13:45:31;5.30;;;1.60;;
46765;SDS011;32527;51.986;5.842;2023-04-03T13:48:15;6.60;;;2.08;;
46765;SDS011;32527;51.986;5.842;2023-04-03T13:51:03;6.32;;;1.95;;
46765;SDS011;32527;51.986;5.842;2023-04-03T13:53:51;3.67;;;1.75;;
46765;SDS011;32527;51.986;5.842;2023-04-03T13:56:26;3.47;;;1.90;;
46765;SDS011;32527;51.986;5.842;2023-04-03T14:01:45;3.70;;;1.75;;
46765;SDS011;32527;51.986;5.842;2023-04-03T14:07:10;4.30;;;1.80;;
46765;SDS011;32527;51.986;5.842;2023-04-03T14:09:37;4.00;;;1.85;;
46765;SDS011;32527;51.986;5.842;2023-04-03T14:12:24;8.18;;;2.47;;
46765;SDS011;32527;51.986;5.842;2023-04-03T14:15:04;4.85;;;2.30;;
46765;SDS011;32527;51.986;5.842;2023-04-03T14:17:36;3.25;;;2.13;;
46765;SDS011;32527;51.986;5.842;2023-04-03T14:20:02;4.88;;;2.17;;
46765;SDS011;32527;51.986;5.842;2023-04-03T14:22:32;7.10;;;2.40;;
46765;SDS011;32527;51.986;5.842;2023-04-03T14:24:59;4.43;;;2.10;;
46765;SDS011;32527;51.986;5.842;2023-04-03T14:27:27;3.13;;;1.88;;
46765;SDS011;32527;51.986;5.842;2023-04-03T14:29:55;4.72;;;1.90;;
46765;SDS011;32527;51.986;5.842;2023-04-03T14:32:23;4.20;;;2.50;;
46765;SDS011;32527;51.986;5.842;2023-04-03T14:34:50;6.40;;;1.80;;
46765;SDS011;32527;51.986;5.842;2023-04-03T14:37:18;8.75;;;2.63;;
46765;SDS011;32527;51.986;5.842;2023-04-03T14:39:46;4.88;;;2.00;;
46765;SDS011;32527;51.986;5.842;2023-04-03T14:42:17;4.15;;;1.90;;
46765;SDS011;32527;51.986;5.842;2023-04-03T14:44:45;3.20;;;1.67;;
46765;SDS011;32527;51.986;5.842;2023-04-03T14:47:12;4.97;;;2.90;;
46765;SDS011;32527;51.986;5.842;2023-04-03T14:49:40;4.85;;;1.80;;
46765;SDS011;32527;51.986;5.842;2023-04-03T14:52:09;6.20;;;2.30;;
46765;SDS011;32527;51.986;5.842;2023-04-03T14:54:46;6.88;;;3.58;;
46765;SDS011;32527;51.986;5.842;2023-04-03T14:57:13;5.13;;;2.08;;
46765;SDS011;32527;51.986;5.842;2023-04-03T14:59:40;4.65;;;2.35;;
46765;SDS011;32527;51.986;5.842;2023-04-03T15:04:51;4.97;;;2.15;;
46765;SDS011;32527;51.986;5.842;2023-04-03T15:07:17;7.78;;;2.40;;
46765;SDS011;32527;51.986;5.842;2023-04-03T15:09:43;4.85;;;2.35;;
46765;SDS011;32527;51.986;5.842;2023-04-03T15:12:10;4.05;;;2.00;;
46765;SDS011;32527;51.986;5.842;2023-04-03T15:14:36;6.72;;;2.28;;
46765;SDS011;32527;51.986;5.842;2023-04-03T15:17:02;5.53;;;2.40;;
46765;SDS011;32527;51.986;5.842;2023-04-03T15:19:29;2.90;;;1.85;;
46765;SDS011;32527;51.986;5.842;2023-04-03T15:21:59;5.80;;;2.08;;
46765;SDS011;32527;51.986;5.842;2023-04-03T15:24:25;4.22;;;2.20;;
46765;SDS011;32527;51.986;5.842;2023-04-03T15:26:51;5.05;;;2.00;;
46765;SDS011;32527;51.986;5.842;2023-04-03T15:29:17;7.57;;;2.38;;
46765;SDS011;32527;51.986;5.842;2023-04-03T15:31:43;5.32;;;1.80;;
46765;SDS011;32527;51.986;5.842;2023-04-03T15:34:09;7.32;;;2.58;;
46765;SDS011;32527;51.986;5.842;2023-04-03T15:36:35;5.50;;;2.50;;
46765;SDS011;32527;51.986;5.842;2023-04-03T15:39:01;3.53;;;2.15;;
46765;SDS011;32527;51.986;5.842;2023-04-03T15:41:27;6.28;;;2.70;;
46765;SDS011;32527;51.986;5.842;2023-04-03T15:43:53;6.57;;;2.15;;
46765;SDS011;32527;51.986;5.842;2023-04-03T15:46:19;6.05;;;2.47;;
46765;SDS011;32527;51.986;5.842;2023-04-03T15:48:45;6.13;;;2.78;;
46765;SDS011;32527;51.986;5.842;2023-04-03T15:51:13;5.60;;;2.47;;
46765;SDS011;32527;51.986;5.842;2023-04-03T15:53:38;4.85;;;2.40;;
46765;SDS011;32527;51.986;5.842;2023-04-03T15:56:04;5.70;;;2.20;;
46765;SDS011;32527;51.986;5.842;2023-04-03T15:58:30;5.28;;;2.03;;
46765;SDS011;32527;51.986;5.842;2023-04-03T16:00:57;4.35;;;1.98;;
46765;SDS011;32527;51.986;5.842;2023-04-03T16:03:22;8.70;;;2.65;;
46765;SDS011;32527;51.986;5.842;2023-04-03T16:05:49;7.93;;;2.30;;
46765;SDS011;32527;51.986;5.842;2023-04-03T16:08:15;3.53;;;2.00;;
46765;SDS011;32527;51.986;5.842;2023-04-03T16:10:42;7.50;;;2.33;;
46765;SDS011;32527;51.986;5.842;2023-04-03T16:13:10;4.15;;;2.08;;
46765;SDS011;32527;51.986;5.842;2023-04-03T16:15:36;5.13;;;2.05;;
46765;SDS011;32527;51.986;5.842;2023-04-03T16:18:03;8.77;;;2.25;;
46765;SDS011;32527;51.986;5.842;2023-04-03T16:20:29;5.63;;;2.30;;
46765;SDS011;32527;51.986;5.842;2023-04-03T16:22:57;5.72;;;2.03;;
46765;SDS011;32527;51.986;5.842;2023-04-03T16:25:25;5.72;;;2.33;;
46765;SDS011;32527;51.986;5.842;2023-04-03T16:27:52;6.40;;;2.20;;
46765;SDS011;32527;51.986;5.842;2023-04-03T16:30:18;7.13;;;2.20;;
46765;SDS011;32527;51.986;5.842;2023-04-03T16:32:44;6.40;;;2.30;;
46765;SDS011;32527;51.986;5.842;2023-04-03T16:35:10;5.85;;;2.50;;
46765;SDS011;32527;51.986;5.842;2023-04-03T16:37:37;3.95;;;2.20;;
46765;SDS011;32527;51.986;5.842;2023-04-03T16:40:04;4.68;;;2.17;;
46765;SDS011;32527;51.986;5.842;2023-04-03T16:42:31;4.32;;;2.17;;
46765;SDS011;32527;51.986;5.842;2023-04-03T16:44:57;7.38;;;2.25;;
46765;SDS011;32527;51.986;5.842;2023-04-03T16:47:26;5.97;;;2.20;;
46765;SDS011;32527;51.986;5.842;2023-04-03T16:49:51;5.85;;;2.58;;
46765;SDS011;32527;51.986;5.842;2023-04-03T16:52:17;7.95;;;2.78;;
46765;SDS011;32527;51.986;5.842;2023-04-03T16:54:44;5.10;;;1.88;;